• Join FlightAware (Why Join?)
  • Login
  • US Flag 
06:00PM EDT


 

Airport Tracker/Info


-or-


 

Live Flight TrackerFlight Track Log ✈ N3281S ✈ 25-Oct-2013 ✈ KAAS - 3OH0

Flight Track Log - Related Links

Times and Time Zones

All times are in EDT time to prevent confusion due to time zone crossing. See the N3281S flight status page for this flight to view local times or setup timezone preferences in your user account.

Time Position Orientation Groundspeed Altitude Reporting Facility
EDT Latitude Longitude Course Direction KTS MPH feet Rate Location/Type
11:23AM 37.5532 -85.1985 22° Northeast  Level FlightAware Approximate
11:24AM 37.5873 -85.1815 22° Northeast  Level FlightAware Approximate
11:25AM 37.6214 -85.1644 22° Northeast  Level FlightAware Approximate
11:26AM 37.6554 -85.1473 22° Northeast  Level FlightAware Approximate
11:27AM 37.6895 -85.1303 21° North  Level FlightAware Approximate
11:28AM 37.7236 -85.1134 21° North  Level FlightAware Approximate
11:29AM 37.7577 -85.0965 21° North  Level FlightAware Approximate
11:30AM 37.7919 -85.0796 21° North  Level FlightAware Approximate
11:31AM 37.8260 -85.0627 21° North  Level FlightAware Approximate
11:32AM 37.8601 -85.0457 21° North  Level FlightAware Approximate
11:33AM 37.8942 -85.0287 21° North  Level FlightAware Approximate
11:34AM 37.9283 -85.0118 21° North  Level FlightAware Approximate
11:35AM 37.9624 -84.9948 21° North  Level FlightAware Approximate
11:36AM 37.9965 -84.9778 21° North  Level FlightAware Approximate
11:37AM 38.0307 -84.9607 21° North  Level FlightAware Approximate
11:38AM 38.0648 -84.9437 21° North  Level FlightAware Approximate
11:39AM 38.0989 -84.9267 21° North  Level FlightAware Approximate
11:40AM 38.1329 -84.9096 21° North  Level FlightAware Approximate
11:41AM 38.1670 -84.8925 22° Northeast  Level FlightAware Approximate
11:42AM 38.2011 -84.8754 22° Northeast  Level FlightAware Approximate
11:43AM 38.2352 -84.8583 22° Northeast  Level FlightAware Approximate
11:44AM 38.2693 -84.8411 22° Northeast  Level FlightAware Approximate
11:45AM 38.3034 -84.8240 22° Northeast  Level FlightAware Approximate
11:45AM 38.4000 -84.8000 20° North 129 148 3,100  Level Cincinnati TRACON
11:46AM 38.3375 -84.8068 22° Northeast  Level FlightAware Approximate
11:46AM 38.4333 -84.7833 21° North 130 150 3,100  Level Cincinnati TRACON
11:47AM 38.3716 -84.7896 22° Northeast  Level FlightAware Approximate
11:47AM 38.4500 -84.7667 38° Northeast 129 148 3,100  Level Cincinnati TRACON
11:48AM 38.4056 -84.7724 22° Northeast  Level FlightAware Approximate
11:48AM 38.5000 -84.7500 15° North 130 150 3,100  Level Cincinnati TRACON
11:49AM 38.4397 -84.7552 22° Northeast  Level FlightAware Approximate
11:49AM 38.5167 -84.7333 38° Northeast 133 153 3,100  Level Cincinnati TRACON
11:50AM 38.4740 -84.7387 20° North  Level FlightAware Approximate
11:50AM 38.5500 -84.7167 21° North 129 148 3,200  Level Cincinnati TRACON
11:51AM 38.5084 -84.7225 20° North  Level FlightAware Approximate
11:51AM 38.5833 -84.6833 38° Northeast 128 147 3,100  Level Cincinnati TRACON
11:52AM 38.6167 -84.6667 21° North 132 152 3,100  Level Cincinnati TRACON
11:53AM 38.6500 -84.6500 21° North 128 147 3,200  Climbing Cincinnati TRACON
11:54AM 38.6833 -84.6333 21° North 128 147 3,100  Descending Cincinnati TRACON
11:55AM 38.7167 -84.6167 21° North 130 150 3,200  Climbing Cincinnati TRACON
11:56AM 38.7500 -84.5833 38° Northeast 131 151 3,200  Level Cincinnati TRACON
11:57AM 38.7833 -84.5667 21° North 130 150 3,200 -60 Level Cincinnati TRACON
11:58AM 38.8167 -84.5500 21° North 133 153 3,100 -60 Descending Cincinnati TRACON
11:59AM 38.8500 -84.5167 38° Northeast 135 155 3,100  Level Cincinnati TRACON
12:00PM 38.8833 -84.5000 21° North 127 146 3,100  Level Cincinnati TRACON
12:01PM 38.9167 -84.4833 21° North 128 147 3,100  Level Cincinnati TRACON
12:02PM 38.9500 -84.4667 21° North 128 147 3,100  Level Cincinnati TRACON
12:03PM 38.9833 -84.4500 21° North 131 151 3,100 -60 Level Cincinnati TRACON
12:04PM 39.0167 -84.4333 21° North 133 153 3,000  Descending Cincinnati TRACON
12:05PM 39.0500 -84.4167 21° North 126 145 3,100 60 Climbing Cincinnati TRACON
12:06PM 39.0833 -84.4000 21° North 129 148 3,200 60 Climbing Cincinnati TRACON
12:07PM 39.1167 -84.4000 360° North 128 147 3,300  Climbing Cincinnati TRACON
12:08PM 39.1500 -84.3833 21° North 133 153 3,200  Descending Cincinnati TRACON
12:09PM 39.1833 -84.3833 360° North 130 150 3,300  Climbing Cincinnati TRACON
12:10PM 39.2167 -84.3667 21° North 131 151 3,200  Descending Cincinnati TRACON
12:11PM 39.2500 -84.3500 21° North 130 150 3,300  Climbing Cincinnati TRACON
12:12PM 39.3000 -84.3500 360° North 130 150 3,200 -120 Descending Cincinnati TRACON
12:13PM 39.3333 -84.3333 21° North 132 152 3,100  Descending Cincinnati TRACON
12:14PM 39.3672 -84.3131 25° Northeast 128 147 3,200 60 Climbing Indianapolis Center
12:15PM 39.3750 -84.3089 22° Northeast 131 151 3,200 -120 Level Indianapolis Center
12:15PM 39.4019 -84.2981 17° North 129 148 3,100 -120 Descending Indianapolis Center
12:16PM 39.4078 -84.2958 16° North 129 148 3,100  Level Indianapolis Center
12:16PM 39.4367 -84.2819 20° North 131 151 3,100  Level Indianapolis Center
12:16PM 39.4358 -84.2822 194° South 130 150 3,100  Level Indianapolis Center
12:17PM 39.4700 -84.2661 20° North 132 152 3,100  Level Indianapolis Center
12:18PM 39.4711 -84.2656 21° North 132 152 3,100 -240 Level Indianapolis Center
12:18PM 39.5078 -84.2483 20° North 132 152 2,900 -240 Descending Indianapolis Center
12:19PM 39.5050 -84.2483 180° South 132 152 2,900 60 Level Indianapolis Center
12:19PM 39.5411 -84.2300 21° North 133 153 3,000  Climbing Indianapolis Center
12:20PM 39.5392 -84.2306 192° South 132 152 2,900  Descending Indianapolis Center
12:20PM 39.5708 -84.2081 29° Northeast 132 152 3,000 60 Climbing Indianapolis Center
12:21PM 39.5783 -84.2031 27° Northeast 134 154 3,000 60 Level Indianapolis Center
12:21PM 39.6031 -84.1839 31° Northeast 132 152 3,100 60 Climbing Indianapolis Center
12:22PM 39.6097 -84.1792 29° Northeast 132 152 3,100  Level Indianapolis Center
12:22PM 39.6350 -84.1594 31° Northeast 133 153 3,100  Level Indianapolis Center
12:23PM 39.6419 -84.1547 28° Northeast 133 153 3,100 -120 Level Indianapolis Center
12:23PM 39.6689 -84.1383 25° Northeast 134 154 3,000 -120 Descending Indianapolis Center
12:24PM 39.6753 -84.1331 32° Northeast 133 153 3,000  Level Indianapolis Center
12:24PM 39.7006 -84.1167 27° Northeast 136 157 3,000  Level Indianapolis Center
12:25PM 39.7092 -84.1114 25° Northeast 134 154 3,000 180 Level Indianapolis Center
12:25PM 39.7386 -84.0961 22° Northeast 134 154 3,200 180 Climbing Indianapolis Center
12:26PM 39.7442 -84.0936 19° North 134 154 3,200 -120 Level Indianapolis Center
12:26PM 39.7739 -84.0806 19° North 134 154 3,100 -120 Descending Indianapolis Center
12:27PM 39.7864 -84.0736 23° Northeast 134 154 3,100 -120 Level Indianapolis Center
12:27PM 39.8094 -84.0622 21° North 136 157 3,000 -240 Descending Indianapolis Center
12:28PM 39.8225 -84.0558 21° North 136 157 2,900 -120 Descending Indianapolis Center
12:28PM 39.8464 -84.0497 11° North 133 153 2,900 -300 Level Indianapolis Center
12:29PM 39.8592 -84.0444 18° North 136 157 2,600 -720 Descending Indianapolis Center
12:29PM 39.8808 -84.0422 North 131 151 2,200 -600 Descending Indianapolis Center
12:30PM 39.8950 -84.0375 14° North 133 153 2,000 -420 Descending Indianapolis Center
12:31PM 39.9142 -84.0261 25° Northeast 119 137 1,800 -240 Descending Indianapolis Center
12:31PM 39.9228 -84.0069 60° Northeast 131 151 1,800 -540 Level Indianapolis Center
12:32PM 39.9272 -84.0011 45° Northeast 83 96 1,300 -900 Descending Indianapolis Center
12:34PM 39.9167 -84.0000 37° Northeast  Level FlightAware Approximate
12:41PM 39.9309 -84.0135 37° Northeast  Level Estimated
12:42PM 39.9309 -84.0135 37° Northeast  Level Estimated
12:43PM 39.9309 -84.0135 37° Northeast  Level Estimated
12:44PM 39.9309 -84.0135 37° Northeast  Level Estimated
12:45PM 39.9309 -84.0135 37° Northeast  Level Estimated
12:46PM 39.9309 -84.0135 37° Northeast  Level Estimated
12:47PM 39.9309 -84.0135 37° Northeast  Level Estimated
12:48PM 39.9309 -84.0135 37° Northeast  Level Estimated